createdAt,value
2019-03-10T00:03:06.807Z,1.70
2019-03-10T00:05:35.597Z,2.47
2019-03-10T00:08:03.787Z,1.70
2019-03-10T00:10:32.021Z,1.60
2019-03-10T00:13:00.203Z,1.67
2019-03-10T00:15:28.450Z,1.45
2019-03-10T00:17:56.692Z,1.72
2019-03-10T00:20:25.145Z,1.90
2019-03-10T00:22:53.348Z,1.70
2019-03-10T00:25:21.569Z,1.07
2019-03-10T00:27:49.796Z,1.30
2019-03-10T00:30:18.112Z,1.80
2019-03-10T00:32:46.270Z,1.57
2019-03-10T00:35:15.030Z,1.95
2019-03-10T00:37:43.335Z,1.85
2019-03-10T00:40:52.440Z,1.62
2019-03-10T00:44:14.100Z,1.90
2019-03-10T00:47:24.086Z,1.77
2019-03-10T00:50:22.493Z,2.10
2019-03-10T00:52:59.121Z,1.50
2019-03-10T00:55:27.419Z,1.75
2019-03-10T00:57:55.622Z,2.12
2019-03-10T01:00:23.955Z,2.02
2019-03-10T01:02:52.184Z,1.90
2019-03-10T01:05:20.315Z,1.42
2019-03-10T01:07:48.825Z,1.72
2019-03-10T01:10:17.043Z,1.37
2019-03-10T01:12:45.177Z,0.90
2019-03-10T01:15:13.537Z,1.30
2019-03-10T01:17:42.210Z,1.35
2019-03-10T01:20:10.962Z,1.50
2019-03-10T01:22:39.466Z,1.40
2019-03-10T01:25:08.195Z,1.52
2019-03-10T01:27:36.418Z,1.15
2019-03-10T01:30:05.586Z,1.72
2019-03-10T01:33:10.442Z,1.32
2019-03-10T01:35:42.593Z,1.20
2019-03-10T01:38:10.824Z,1.52
2019-03-10T01:40:39.054Z,1.02
2019-03-10T01:43:07.223Z,1.35
2019-03-10T01:45:35.392Z,1.70
2019-03-10T01:48:03.691Z,0.85
2019-03-10T01:50:32.062Z,1.20
2019-03-10T01:53:00.281Z,1.30
2019-03-10T01:55:28.624Z,1.17
2019-03-10T01:57:56.805Z,0.95
2019-03-10T02:00:25.172Z,1.40
2019-03-10T02:02:53.327Z,1.70
2019-03-10T02:05:21.666Z,2.05
2019-03-10T02:07:49.997Z,1.40
2019-03-10T02:10:18.763Z,1.50
2019-03-10T02:12:47.229Z,1.25
2019-03-10T02:15:15.975Z,1.07
2019-03-10T02:17:44.200Z,1.07
2019-03-10T02:20:15.057Z,1.05
2019-03-10T02:22:43.350Z,0.72
2019-03-10T02:25:11.643Z,1.82
2019-03-10T02:27:39.794Z,1.67
2019-03-10T02:30:10.006Z,1.10
2019-03-10T02:32:38.197Z,1.17
2019-03-10T02:35:06.800Z,1.62
2019-03-10T02:37:34.999Z,1.05
2019-03-10T02:40:03.187Z,1.60
2019-03-10T02:42:31.668Z,1.02
2019-03-10T02:44:59.827Z,1.25
2019-03-10T02:47:27.980Z,1.20
2019-03-10T02:49:56.398Z,1.45
2019-03-10T02:52:24.604Z,1.25
2019-03-10T02:54:52.792Z,1.50
2019-03-10T02:57:20.967Z,1.05
2019-03-10T02:59:49.323Z,1.55
2019-03-10T03:02:17.718Z,1.00
2019-03-10T03:04:45.893Z,1.82
2019-03-10T03:07:14.099Z,2.20
2019-03-10T03:09:42.271Z,1.05
2019-03-10T03:12:10.765Z,1.50
2019-03-10T03:14:39.342Z,1.15
2019-03-10T03:17:07.517Z,1.57
2019-03-10T03:19:35.669Z,2.02
2019-03-10T03:22:03.878Z,1.55
2019-03-10T03:24:32.123Z,1.35
2019-03-10T03:27:02.512Z,1.32
2019-03-10T03:29:30.192Z,1.80
2019-03-10T03:31:58.691Z,1.20
2019-03-10T03:34:26.984Z,1.05
2019-03-10T03:36:55.111Z,1.72
2019-03-10T03:39:30.295Z,1.75
2019-03-10T03:41:58.482Z,1.82
2019-03-10T03:44:26.703Z,1.82
2019-03-10T03:46:55.156Z,1.82
2019-03-10T03:49:23.345Z,1.27
2019-03-10T03:51:51.476Z,1.92
2019-03-10T03:54:19.609Z,1.55
2019-03-10T03:56:47.876Z,1.62
2019-03-10T03:59:15.967Z,1.77
2019-03-10T04:02:03.073Z,1.92
2019-03-10T04:04:31.241Z,2.00
2019-03-10T04:06:59.682Z,1.07
2019-03-10T04:09:27.819Z,1.00
2019-03-10T04:11:55.957Z,2.10
2019-03-10T04:14:24.142Z,1.98
2019-03-10T04:16:52.293Z,1.62
2019-03-10T04:19:20.512Z,1.60
2019-03-10T04:21:48.859Z,1.85
2019-03-10T04:24:16.980Z,1.60
2019-03-10T04:26:45.165Z,1.70
2019-03-10T04:29:13.430Z,1.80
2019-03-10T04:31:41.714Z,1.85
2019-03-10T04:34:09.981Z,2.05
2019-03-10T04:36:38.159Z,1.90
2019-03-10T04:39:07.665Z,2.33
2019-03-10T04:41:35.843Z,1.45
2019-03-10T04:44:04.237Z,1.72
2019-03-10T04:46:32.439Z,1.75
2019-03-10T04:49:00.655Z,1.98
2019-03-10T04:51:28.944Z,1.90
2019-03-10T04:53:57.585Z,1.90
2019-03-10T04:56:44.733Z,1.27
2019-03-10T04:59:12.895Z,1.40
2019-03-10T05:01:40.995Z,1.15
2019-03-10T05:04:09.211Z,1.37
2019-03-10T05:06:37.325Z,1.32
2019-03-10T05:09:10.276Z,1.72
2019-03-10T05:11:38.490Z,1.35
2019-03-10T05:14:06.655Z,1.62
2019-03-10T05:16:34.877Z,1.40
2019-03-10T05:19:03.070Z,1.27
2019-03-10T05:21:31.274Z,2.17
2019-03-10T05:24:03.140Z,2.30
2019-03-10T05:26:31.600Z,1.80
2019-03-10T05:28:59.730Z,1.65
2019-03-10T05:31:27.879Z,1.95
2019-03-10T05:33:56.158Z,2.35
2019-03-10T05:36:24.316Z,1.62
2019-03-10T05:38:52.496Z,1.90
2019-03-10T05:41:20.694Z,2.10
2019-03-10T05:43:48.885Z,1.90
2019-03-10T05:46:17.066Z,1.80
2019-03-10T05:48:45.276Z,1.80
2019-03-10T05:51:13.479Z,1.37
2019-03-10T05:53:41.669Z,2.35
2019-03-10T05:56:10.238Z,1.95
2019-03-10T05:58:38.615Z,1.50
2019-03-10T06:01:06.843Z,1.37
2019-03-10T06:03:35.073Z,1.82
2019-03-10T06:06:03.420Z,1.77
2019-03-10T06:08:31.802Z,1.50
2019-03-10T06:11:00.166Z,1.15
2019-03-10T06:13:28.429Z,1.67
2019-03-10T06:15:56.576Z,1.47
2019-03-10T06:18:24.797Z,2.08
2019-03-10T06:20:53.283Z,1.22
2019-03-10T06:23:21.706Z,1.52
2019-03-10T06:25:49.949Z,1.70
2019-03-10T06:28:18.185Z,1.57
2019-03-10T06:30:46.418Z,1.60
2019-03-10T06:33:14.580Z,2.20
2019-03-10T06:35:42.784Z,1.75
2019-03-10T06:38:10.924Z,1.90
2019-03-10T06:40:39.405Z,1.62
2019-03-10T06:43:07.592Z,1.42
2019-03-10T06:45:35.783Z,1.87
2019-03-10T06:48:04.068Z,2.42
2019-03-10T06:50:32.380Z,1.12
2019-03-10T06:53:00.596Z,2.20
2019-03-10T06:55:28.814Z,1.77
2019-03-10T06:57:57.006Z,2.85
2019-03-10T07:00:25.217Z,2.50
2019-03-10T07:02:53.573Z,2.10
2019-03-10T07:05:21.840Z,2.92
2019-03-10T07:07:50.190Z,2.10
2019-03-10T07:10:18.399Z,1.90
2019-03-10T07:12:46.755Z,2.27
2019-03-10T07:15:15.705Z,2.37
2019-03-10T07:17:43.927Z,2.20
2019-03-10T07:20:14.290Z,2.70
2019-03-10T07:22:42.529Z,4.12
2019-03-10T07:25:10.920Z,4.65
2019-03-10T07:27:51.279Z,3.37
2019-03-10T07:30:36.765Z,2.55
2019-03-10T07:33:27.053Z,4.15
2019-03-10T07:36:13.127Z,2.87
2019-03-10T07:38:56.449Z,5.72
2019-03-10T07:41:43.411Z,7.28
2019-03-10T07:44:20.288Z,7.47
2019-03-10T07:46:59.090Z,5.00
2019-03-10T07:50:01.486Z,5.15
2019-03-10T07:52:41.816Z,3.40
2019-03-10T07:55:38.008Z,3.90
2019-03-10T07:58:25.296Z,3.50
2019-03-10T08:01:10.582Z,2.65
2019-03-10T08:03:49.750Z,1.60
2019-03-10T08:06:25.234Z,1.35
2019-03-10T08:09:06.910Z,1.30
2019-03-10T08:11:41.568Z,1.50
2019-03-10T08:14:31.540Z,1.35
2019-03-10T08:17:24.796Z,1.50
2019-03-10T08:20:23.919Z,1.50
2019-03-10T08:23:05.515Z,1.70
2019-03-10T08:26:01.745Z,2.90
2019-03-10T08:28:40.189Z,2.00
2019-03-10T08:31:33.252Z,1.72
2019-03-10T08:34:38.928Z,1.62
2019-03-10T08:37:13.107Z,2.02
2019-03-10T08:40:00.509Z,1.45
2019-03-10T08:42:44.277Z,1.15
2019-03-10T08:45:49.662Z,1.32
2019-03-10T08:48:36.905Z,1.90
2019-03-10T08:51:24.133Z,1.70
2019-03-10T08:54:26.450Z,1.65
2019-03-10T08:57:13.404Z,1.30
2019-03-10T09:00:00.581Z,2.33
2019-03-10T09:02:45.746Z,1.62
2019-03-10T09:05:32.955Z,1.15
2019-03-10T09:08:09.197Z,2.12
2019-03-10T09:10:56.491Z,1.30
2019-03-10T09:13:50.104Z,1.65
2019-03-10T09:16:36.613Z,1.62
2019-03-10T09:19:20.758Z,1.17
2019-03-10T09:22:00.427Z,1.75
2019-03-10T09:24:50.812Z,1.47
2019-03-10T09:27:38.090Z,1.40
2019-03-10T09:30:24.823Z,2.12
2019-03-10T09:33:12.297Z,1.85
2019-03-10T09:35:55.330Z,1.30
2019-03-10T09:38:41.464Z,4.15
2019-03-10T09:41:41.216Z,1.90
2019-03-10T09:44:28.669Z,3.60
2019-03-10T09:47:12.512Z,2.70
2019-03-10T09:50:01.565Z,2.27
2019-03-10T09:53:02.078Z,2.20
2019-03-10T09:55:47.945Z,1.15
2019-03-10T09:58:24.207Z,2.25
2019-03-10T10:01:00.973Z,2.52
2019-03-10T10:03:40.478Z,2.47
2019-03-10T10:06:27.665Z,1.40
2019-03-10T10:09:15.019Z,1.72
2019-03-10T10:11:49.620Z,1.27
2019-03-10T10:14:42.976Z,1.00
2019-03-10T10:17:30.341Z,0.90
2019-03-10T10:20:33.028Z,0.90
2019-03-10T10:23:20.354Z,0.60
2019-03-10T10:26:11.248Z,0.75
2019-03-10T10:28:55.435Z,0.60
2019-03-10T10:31:46.438Z,0.68
2019-03-10T10:34:43.739Z,0.37
2019-03-10T10:37:31.064Z,0.70
2019-03-10T10:40:18.394Z,0.40
2019-03-10T10:43:06.090Z,0.47
2019-03-10T10:45:53.550Z,0.40
2019-03-10T10:48:50.486Z,0.60
2019-03-10T10:51:36.491Z,0.57
2019-03-10T10:54:14.773Z,0.20
2019-03-10T10:57:02.184Z,0.53
2019-03-10T10:59:42.805Z,1.00
2019-03-10T11:04:56.545Z,0.60
2019-03-10T11:07:47.119Z,0.50
2019-03-10T11:10:34.454Z,0.20
2019-03-10T11:13:21.833Z,0.20
2019-03-10T11:16:21.309Z,0.20
2019-03-10T11:19:08.485Z,0.20
2019-03-10T11:21:58.612Z,0.20
2019-03-10T11:24:32.605Z,0.33
2019-03-10T11:27:20.351Z,0.60
2019-03-10T11:30:06.114Z,0.50
2019-03-10T11:32:45.735Z,0.70
2019-03-10T11:35:31.668Z,0.55
2019-03-10T11:38:09.381Z,0.40
2019-03-10T11:40:44.984Z,0.50
2019-03-10T11:43:19.609Z,0.60
2019-03-10T11:46:21.998Z,0.75
2019-03-10T11:49:09.602Z,0.40
2019-03-10T11:51:56.954Z,2.37
2019-03-10T11:54:43.082Z,5.95
2019-03-10T11:57:30.224Z,1.60
2019-03-10T12:00:06.573Z,2.05
2019-03-10T12:02:51.784Z,0.40
2019-03-10T12:05:39.188Z,0.28
2019-03-10T12:08:29.579Z,1.07
2019-03-10T12:10:58.236Z,1.90
2019-03-10T12:13:26.630Z,0.60
2019-03-10T12:15:55.465Z,0.55
2019-03-10T12:18:25.293Z,0.70
2019-03-10T12:20:53.929Z,0.50
2019-03-10T12:23:22.317Z,0.72
2019-03-10T12:25:50.913Z,0.30
2019-03-10T12:28:19.778Z,1.50
2019-03-10T12:30:48.823Z,1.27
2019-03-10T12:33:17.652Z,0.93
2019-03-10T12:35:46.313Z,0.53
2019-03-10T12:38:15.823Z,0.42
2019-03-10T12:40:44.343Z,0.40
2019-03-10T12:43:31.828Z,0.45
2019-03-10T12:46:00.643Z,1.30
2019-03-10T12:48:29.140Z,0.45
2019-03-10T12:50:57.949Z,0.57
2019-03-10T12:53:26.471Z,0.70
2019-03-10T12:55:55.497Z,0.42
2019-03-10T12:58:24.887Z,0.30
2019-03-10T13:00:53.536Z,0.53
2019-03-10T13:03:22.381Z,0.68
2019-03-10T13:05:51.061Z,0.40
2019-03-10T13:08:20.110Z,0.60
2019-03-10T13:10:48.810Z,1.05
2019-03-10T13:13:17.902Z,0.80
2019-03-10T13:15:47.139Z,0.60
2019-03-10T13:18:15.846Z,0.37
2019-03-10T13:20:44.336Z,0.57
2019-03-10T13:23:13.858Z,0.57
2019-03-10T13:25:42.656Z,0.90
2019-03-10T13:28:11.740Z,0.70
2019-03-10T13:30:40.861Z,0.60
2019-03-10T13:33:12.678Z,0.60
2019-03-10T13:35:41.797Z,0.70
2019-03-10T13:38:11.305Z,0.50
2019-03-10T13:40:40.214Z,0.70
2019-03-10T13:43:09.157Z,0.40
2019-03-10T13:45:38.107Z,0.40
2019-03-10T13:48:06.671Z,1.80
2019-03-10T13:50:36.215Z,6.65
2019-03-10T13:53:05.427Z,2.77
2019-03-10T13:55:34.507Z,0.53
2019-03-10T13:58:03.663Z,0.65
2019-03-10T14:00:33.701Z,1.55
2019-03-10T14:03:05.291Z,1.95
2019-03-10T14:05:34.614Z,1.40
2019-03-10T14:08:04.550Z,4.05
2019-03-10T14:10:33.887Z,4.50
2019-03-10T14:13:02.229Z,2.70
2019-03-10T14:15:31.033Z,2.60
2019-03-10T14:17:59.752Z,3.70
2019-03-10T14:20:28.502Z,2.72
2019-03-10T14:22:57.645Z,5.10
2019-03-10T14:25:26.716Z,4.95
2019-03-10T14:27:55.550Z,4.90
2019-03-10T14:30:23.981Z,21.02
2019-03-10T14:32:52.993Z,14.03
2019-03-10T14:35:21.612Z,7.60
2019-03-10T14:37:50.598Z,6.87
2019-03-10T14:40:19.700Z,6.17
2019-03-10T14:42:48.733Z,3.62
2019-03-10T14:45:17.523Z,5.40
2019-03-10T14:47:48.848Z,3.70
2019-03-10T14:50:18.755Z,3.08
2019-03-10T14:52:48.283Z,3.72
2019-03-10T14:55:17.541Z,2.75
2019-03-10T14:57:47.240Z,3.50
2019-03-10T15:00:19.391Z,2.30
2019-03-10T15:02:48.809Z,2.40
2019-03-10T15:05:17.530Z,3.25
2019-03-10T15:07:46.899Z,1.55
2019-03-10T15:10:16.889Z,2.02
2019-03-10T15:12:46.653Z,1.70
2019-03-10T15:15:22.289Z,1.92
2019-03-10T15:17:46.394Z,1.27
2019-03-10T15:20:15.642Z,1.65
2019-03-10T15:22:44.991Z,1.70
2019-03-10T15:25:14.035Z,1.40
2019-03-10T15:27:44.422Z,1.32
2019-03-10T15:33:04.078Z,0.70
2019-03-10T15:35:33.240Z,1.30
2019-03-10T15:38:02.556Z,1.02
2019-03-10T15:40:34.441Z,1.45
2019-03-10T15:43:04.896Z,1.07
2019-03-10T15:45:33.702Z,1.20
2019-03-10T15:48:02.557Z,1.77
2019-03-10T15:50:31.888Z,1.05
2019-03-10T15:53:01.181Z,1.20
2019-03-10T15:55:30.707Z,1.27
2019-03-10T15:57:59.287Z,0.82
2019-03-10T16:00:28.200Z,1.05
2019-03-10T16:02:57.307Z,1.07
2019-03-10T16:05:26.000Z,1.15
2019-03-10T16:07:56.491Z,1.52
2019-03-10T16:10:25.707Z,1.32
2019-03-10T16:12:54.977Z,1.62
2019-03-10T16:15:23.556Z,1.42
2019-03-10T16:17:53.127Z,1.87
2019-03-10T16:20:22.328Z,1.12
2019-03-10T16:22:51.394Z,1.12
2019-03-10T16:25:20.629Z,1.17
2019-03-10T16:27:50.129Z,1.52
2019-03-10T16:30:19.485Z,1.45
2019-03-10T16:32:56.001Z,1.35
2019-03-10T16:35:25.032Z,1.17
2019-03-10T16:37:54.541Z,1.65
2019-03-10T16:40:27.516Z,1.27
2019-03-10T16:42:57.683Z,1.75
2019-03-10T16:45:26.941Z,0.90
2019-03-10T16:47:57.701Z,0.60
2019-03-10T16:50:28.206Z,0.62
2019-03-10T16:52:57.059Z,0.85
2019-03-10T16:55:25.925Z,1.75
2019-03-10T16:57:55.180Z,0.90
2019-03-10T17:00:43.064Z,0.80
2019-03-10T17:03:11.890Z,1.30
2019-03-10T17:05:40.565Z,0.90
2019-03-10T17:08:10.256Z,0.55
2019-03-10T17:10:39.263Z,0.60
2019-03-10T17:13:09.008Z,0.90
2019-03-10T17:15:38.587Z,0.20
2019-03-10T17:18:08.593Z,0.20
2019-03-10T17:20:38.271Z,0.28
2019-03-10T17:23:08.264Z,0.20
2019-03-10T17:25:37.872Z,0.20
2019-03-10T17:28:07.296Z,0.10
2019-03-10T17:30:36.511Z,0.20
2019-03-10T17:33:06.135Z,0.10
2019-03-10T17:35:35.221Z,0.20
2019-03-10T17:38:04.177Z,0.00
2019-03-10T17:40:33.293Z,0.13
2019-03-10T17:43:02.057Z,0.15
2019-03-10T17:45:31.051Z,0.10
2019-03-10T17:48:00.727Z,0.37
2019-03-10T17:50:29.194Z,0.20
2019-03-10T17:52:58.379Z,0.10
2019-03-10T17:55:27.503Z,0.40
2019-03-10T17:57:57.281Z,0.75
2019-03-10T18:00:27.562Z,0.25
2019-03-10T18:02:57.271Z,0.25
2019-03-10T18:05:26.063Z,0.17
2019-03-10T18:07:55.456Z,0.30
2019-03-10T18:10:25.724Z,0.10
2019-03-10T18:12:55.120Z,0.20
2019-03-10T18:15:25.371Z,0.10
2019-03-10T18:17:54.404Z,0.30
2019-03-10T18:20:23.658Z,0.37
2019-03-10T18:22:52.706Z,0.20
2019-03-10T18:25:21.791Z,0.28
2019-03-10T18:27:50.990Z,0.30
2019-03-10T18:30:21.832Z,0.88
2019-03-10T18:32:51.230Z,0.40
2019-03-10T18:35:21.009Z,0.53
2019-03-10T18:37:50.748Z,0.33
2019-03-10T18:40:28.785Z,0.30
2019-03-10T18:42:57.891Z,0.50
2019-03-10T18:45:28.970Z,0.65
2019-03-10T18:47:58.737Z,0.65
2019-03-10T18:50:29.258Z,0.53
2019-03-10T18:52:58.686Z,0.80
2019-03-10T18:55:27.785Z,0.75
2019-03-10T18:57:57.379Z,0.68
2019-03-10T19:00:26.786Z,0.70
2019-03-10T19:02:56.614Z,2.70
2019-03-10T19:05:26.747Z,3.50
2019-03-10T19:08:15.287Z,0.68
2019-03-10T19:10:45.560Z,1.90
2019-03-10T19:13:15.956Z,1.77
2019-03-10T19:15:45.560Z,0.47
2019-03-10T19:18:15.742Z,1.40
2019-03-10T19:20:45.441Z,1.27
2019-03-10T19:23:15.438Z,1.40
2019-03-10T19:25:46.662Z,1.32
2019-03-10T19:28:16.047Z,1.07
2019-03-10T19:30:47.162Z,0.55
2019-03-10T19:33:16.762Z,0.50
2019-03-10T19:35:47.329Z,0.85
2019-03-10T19:38:18.432Z,11.63
2019-03-10T19:40:48.465Z,2.87
2019-03-10T19:43:18.432Z,2.35
2019-03-10T19:45:48.537Z,1.95
2019-03-10T19:48:18.793Z,1.55
2019-03-10T19:50:49.264Z,1.40
2019-03-10T19:53:19.468Z,1.15
2019-03-10T19:55:49.501Z,1.07
2019-03-10T19:58:19.665Z,1.60
2019-03-10T20:00:49.797Z,1.22
2019-03-10T20:03:19.682Z,1.40
2019-03-10T20:05:52.846Z,1.07
2019-03-10T20:08:23.072Z,0.60
2019-03-10T20:10:52.998Z,1.17
2019-03-10T20:13:23.050Z,1.42
2019-03-10T20:15:53.269Z,0.35
2019-03-10T20:18:23.091Z,1.47
2019-03-10T20:20:57.831Z,1.53
2019-03-10T20:23:27.839Z,1.12
2019-03-10T20:25:59.645Z,1.60
2019-03-10T20:28:30.043Z,0.28
2019-03-10T20:30:59.307Z,1.20
2019-03-10T20:33:29.010Z,1.15
2019-03-10T20:35:58.390Z,1.37
2019-03-10T20:38:27.950Z,1.70
2019-03-10T20:40:56.722Z,0.80
2019-03-10T20:43:25.920Z,3.75
2019-03-10T20:45:55.986Z,1.22
2019-03-10T20:48:26.723Z,1.17
2019-03-10T20:50:56.384Z,0.82
2019-03-10T20:53:26.054Z,3.97
2019-03-10T20:55:55.163Z,0.60
2019-03-10T20:58:24.934Z,1.90
2019-03-10T21:00:54.308Z,0.90
2019-03-10T21:03:22.863Z,1.22
2019-03-10T21:05:52.413Z,1.67
2019-03-10T21:08:22.010Z,0.98
2019-03-10T21:10:51.636Z,0.80
2019-03-10T21:13:20.875Z,1.05
2019-03-10T21:15:49.879Z,0.80
2019-03-10T21:18:18.807Z,0.88
2019-03-10T21:20:47.603Z,1.52
2019-03-10T21:23:16.413Z,0.93
2019-03-10T21:25:45.338Z,1.10
2019-03-10T21:28:14.097Z,1.22
2019-03-10T21:30:42.803Z,1.00
2019-03-10T21:33:11.423Z,0.80
2019-03-10T21:35:40.089Z,0.80
2019-03-10T21:38:08.522Z,0.95
2019-03-10T21:40:37.142Z,1.45
2019-03-10T21:43:05.529Z,1.57
2019-03-10T21:45:34.897Z,3.05
2019-03-10T21:48:03.970Z,0.37
2019-03-10T21:50:32.597Z,3.02
2019-03-10T21:53:01.800Z,3.02
2019-03-10T21:55:30.187Z,2.27
2019-03-10T21:57:58.642Z,2.30
2019-03-10T22:00:27.018Z,1.95
2019-03-10T22:02:55.324Z,2.90
2019-03-10T22:05:23.731Z,2.12
2019-03-10T22:07:52.222Z,2.30
2019-03-10T22:10:27.472Z,1.98
2019-03-10T22:12:54.685Z,3.08
2019-03-10T22:15:23.141Z,1.65
2019-03-10T22:17:51.258Z,1.80
2019-03-10T22:20:19.536Z,2.87
2019-03-10T22:22:49.869Z,3.25
2019-03-10T22:25:18.546Z,2.98
2019-03-10T22:27:46.902Z,3.72
2019-03-10T22:30:16.566Z,3.37
2019-03-10T22:32:45.032Z,1.65
2019-03-10T22:35:13.597Z,2.98
2019-03-10T22:37:41.923Z,1.80
2019-03-10T22:40:11.313Z,2.60
2019-03-10T22:42:39.861Z,2.25
2019-03-10T22:45:09.408Z,2.30
2019-03-10T22:47:37.644Z,2.50
2019-03-10T22:50:06.295Z,2.00
2019-03-10T22:52:34.574Z,1.92
2019-03-10T22:55:02.770Z,1.92
2019-03-10T22:57:31.042Z,2.40
2019-03-10T22:59:59.511Z,1.87
2019-03-10T23:02:27.654Z,2.27
2019-03-10T23:04:55.868Z,1.80
2019-03-10T23:07:24.188Z,0.98
2019-03-10T23:09:52.414Z,0.88
2019-03-10T23:12:23.706Z,1.35
2019-03-10T23:14:52.038Z,1.50
2019-03-10T23:17:20.391Z,1.35
2019-03-10T23:19:48.617Z,0.82
2019-03-10T23:22:16.839Z,1.02
2019-03-10T23:24:45.132Z,0.80
2019-03-10T23:27:13.290Z,1.30
2019-03-10T23:29:41.461Z,0.88
2019-03-10T23:32:09.769Z,1.22
2019-03-10T23:34:38.019Z,0.60
2019-03-10T23:37:06.183Z,0.62
2019-03-10T23:39:34.385Z,1.00
2019-03-10T23:42:02.693Z,0.90
2019-03-10T23:44:31.011Z,0.68
2019-03-10T23:46:59.146Z,0.60
2019-03-10T23:49:27.301Z,0.60
2019-03-10T23:51:55.518Z,0.90
2019-03-10T23:54:23.839Z,1.40
2019-03-10T23:56:52.137Z,1.50
2019-03-10T23:59:20.221Z,1.17
